createdAt,value
2023-02-08T00:00:01.351Z,-6.80
2023-02-08T00:05:03.284Z,-6.90
2023-02-08T00:10:06.848Z,-6.70
2023-02-08T00:15:09.060Z,-6.70
2023-02-08T00:20:11.904Z,-6.70
2023-02-08T00:25:13.780Z,-6.90
2023-02-08T00:30:15.758Z,-6.90
2023-02-08T00:35:18.073Z,-7.00
2023-02-08T00:40:20.088Z,-7.00
2023-02-08T00:45:21.997Z,-7.10
2023-02-08T00:50:24.439Z,-7.20
2023-02-08T00:55:26.353Z,-7.20
2023-02-08T01:00:28.223Z,-7.20
2023-02-08T01:05:30.137Z,-7.20
2023-02-08T01:10:34.413Z,-7.50
2023-02-08T01:15:36.385Z,-7.40
2023-02-08T01:20:38.693Z,-7.50
2023-02-08T01:25:41.899Z,-7.60
2023-02-08T01:30:44.072Z,-7.60
2023-02-08T01:35:46.180Z,-7.50
2023-02-08T01:40:48.252Z,-7.50
2023-02-08T01:45:50.449Z,-7.40
2023-02-08T01:51:14.236Z,-7.20
2023-02-08T01:56:23.410Z,-7.30
2023-02-08T02:01:27.382Z,-7.30
2023-02-08T02:06:34.076Z,-7.40
2023-02-08T02:11:36.347Z,-7.50
2023-02-08T02:16:38.451Z,-7.60
2023-02-08T02:21:51.081Z,-7.60
2023-02-08T02:27:27.601Z,-7.60
2023-02-08T02:32:48.116Z,-7.80
2023-02-08T02:38:25.314Z,-8.00
2023-02-08T02:43:42.742Z,-8.00
2023-02-08T02:48:58.984Z,-8.00
2023-02-08T02:54:14.560Z,-8.00
2023-02-08T02:59:18.156Z,-8.00
2023-02-08T03:04:39.954Z,-8.00
2023-02-08T03:10:02.991Z,-7.90
2023-02-08T03:15:59.410Z,-7.90
2023-02-08T03:21:23.788Z,-8.00
2023-02-08T03:26:31.439Z,-8.00
2023-02-08T03:31:42.406Z,-8.00
2023-02-08T03:37:16.383Z,-8.00
2023-02-08T03:42:24.867Z,-8.10
2023-02-08T03:47:32.005Z,-8.10
2023-02-08T03:52:36.542Z,-8.00
2023-02-08T03:58:01.363Z,-8.10
2023-02-08T04:03:25.955Z,-8.10
2023-02-08T04:08:27.986Z,-8.10
2023-02-08T04:13:29.838Z,-8.10
2023-02-08T04:18:31.712Z,-8.10
2023-02-08T04:23:33.607Z,-8.10
2023-02-08T04:28:35.485Z,-8.30
2023-02-08T04:33:37.429Z,-8.40
2023-02-08T04:38:39.395Z,-8.40
2023-02-08T04:43:41.328Z,-8.30
2023-02-08T04:48:43.207Z,-8.20
2023-02-08T04:53:45.042Z,-8.30
2023-02-08T04:58:48.477Z,-8.40
2023-02-08T05:03:50.801Z,-8.30
2023-02-08T05:08:52.693Z,-8.40
2023-02-08T05:13:54.559Z,-8.40
2023-02-08T05:18:57.466Z,-8.30
2023-02-08T05:23:59.927Z,-8.30
2023-02-08T05:29:01.753Z,-8.20
2023-02-08T05:34:04.363Z,-8.30
2023-02-08T05:39:06.500Z,-8.30
2023-02-08T05:44:08.371Z,-8.30
2023-02-08T05:49:10.269Z,-8.40
2023-02-08T05:54:12.193Z,-8.50
2023-02-08T05:59:14.175Z,-8.40
2023-02-08T06:04:16.266Z,-8.40
2023-02-08T06:09:18.203Z,-8.40
2023-02-08T06:14:20.183Z,-8.30
2023-02-08T06:19:22.369Z,-8.40
2023-02-08T06:24:25.341Z,-8.40
2023-02-08T06:29:27.215Z,-8.40
2023-02-08T06:34:29.958Z,-8.40
2023-02-08T06:39:32.284Z,-8.40
2023-02-08T06:44:34.178Z,-8.40
2023-02-08T06:49:36.047Z,-8.30
2023-02-08T06:54:37.883Z,-8.40
2023-02-08T06:59:40.434Z,-8.40
2023-02-08T07:04:42.684Z,-8.40
2023-02-08T07:09:45.097Z,-8.30
2023-02-08T07:14:46.993Z,-8.30
2023-02-08T07:19:48.886Z,-8.30
2023-02-08T07:24:50.755Z,-8.20
2023-02-08T07:29:52.628Z,-8.00
2023-02-08T07:34:54.580Z,-7.60
2023-02-08T07:39:56.803Z,-7.40
2023-02-08T07:44:58.687Z,-7.10
2023-02-08T07:50:00.741Z,-6.80
2023-02-08T07:55:02.533Z,-6.50
2023-02-08T08:00:04.887Z,-6.30
2023-02-08T08:05:13.971Z,-6.00
2023-02-08T08:10:16.038Z,-5.70
2023-02-08T08:15:18.160Z,-5.50
2023-02-08T08:20:20.479Z,-5.40
2023-02-08T08:25:22.332Z,-5.10
2023-02-08T08:30:24.448Z,-5.00
2023-02-08T08:35:26.624Z,-4.50
2023-02-08T08:40:28.555Z,-4.10
2023-02-08T08:45:30.575Z,-3.70
2023-02-08T08:50:32.412Z,-3.50
2023-02-08T08:55:34.288Z,-3.50
2023-02-08T09:00:36.180Z,-3.20
2023-02-08T09:05:38.171Z,-2.90
2023-02-08T09:10:40.999Z,-2.70
2023-02-08T09:15:43.112Z,-2.60
2023-02-08T09:20:45.246Z,-2.70
2023-02-08T09:25:49.096Z,-2.50
2023-02-08T09:30:51.948Z,-2.60
2023-02-08T09:35:53.981Z,-2.50
2023-02-08T09:41:12.928Z,-2.20
2023-02-08T09:46:22.308Z,-2.00
2023-02-08T09:51:40.857Z,-2.00
2023-02-08T09:56:44.109Z,-2.10
2023-02-08T10:01:47.095Z,-2.10
2023-02-08T10:06:50.155Z,-2.00
2023-02-08T10:12:14.909Z,-2.00
2023-02-08T10:17:32.883Z,-2.00
2023-02-08T10:22:37.527Z,-2.00
2023-02-08T10:28:06.434Z,-1.80
2023-02-08T10:33:21.814Z,-1.80
2023-02-08T10:38:45.410Z,-1.70
2023-02-08T10:44:13.985Z,-1.60
2023-02-08T10:49:27.862Z,-1.40
2023-02-08T10:54:29.793Z,-1.20
2023-02-08T10:59:49.475Z,-1.00
2023-02-08T11:05:17.741Z,-0.80
2023-02-08T11:10:19.559Z,-0.70
2023-02-08T11:15:38.551Z,-0.60
2023-02-08T11:20:40.754Z,-0.40
2023-02-08T11:25:43.094Z,-0.40
2023-02-08T11:31:11.214Z,-0.30
2023-02-08T11:36:14.131Z,-0.20
2023-02-08T11:41:20.279Z,-0.20
2023-02-08T11:46:28.582Z,-0.30
2023-02-08T11:51:34.819Z,0.00
2023-02-08T11:56:36.728Z,0.20
2023-02-08T12:01:41.056Z,0.50
2023-02-08T12:06:54.800Z,0.70
2023-02-08T12:12:13.756Z,0.70
2023-02-08T12:17:18.501Z,0.90
2023-02-08T12:22:28.442Z,0.90
2023-02-08T12:27:51.330Z,1.10
2023-02-08T12:33:11.546Z,1.10
2023-02-08T12:39:05.370Z,1.20
2023-02-08T12:44:18.037Z,1.20
2023-02-08T12:49:41.916Z,1.30
2023-02-08T12:54:49.067Z,1.50
2023-02-08T13:00:04.960Z,1.70
2023-02-08T13:05:07.960Z,1.90
2023-02-08T13:10:31.489Z,2.10
2023-02-08T13:15:33.256Z,2.00
2023-02-08T13:20:42.928Z,2.00
2023-02-08T13:25:45.879Z,1.90
2023-02-08T13:31:05.881Z,1.80
2023-02-08T13:36:32.235Z,1.80
2023-02-08T13:41:35.843Z,1.80
2023-02-08T13:46:45.709Z,1.70
2023-02-08T13:51:52.291Z,1.80
2023-02-08T13:56:54.392Z,1.90
2023-02-08T14:02:23.040Z,1.90
2023-02-08T14:07:32.900Z,1.70
2023-02-08T14:13:25.495Z,1.60
2023-02-08T14:18:28.661Z,1.40
2023-02-08T14:23:32.908Z,1.20
2023-02-08T14:28:43.845Z,1.10
2023-02-08T14:33:55.030Z,1.00
2023-02-08T14:39:27.170Z,0.60
2023-02-08T14:44:38.020Z,0.50
2023-02-08T14:49:43.781Z,0.30
2023-02-08T14:55:02.874Z,0.20
2023-02-08T15:00:18.596Z,0.10
2023-02-08T15:05:23.147Z,0.00
2023-02-08T15:10:26.982Z,-0.20
2023-02-08T15:15:37.130Z,-0.30
2023-02-08T15:20:39.014Z,-0.40
2023-02-08T15:25:42.915Z,-0.50
2023-02-08T15:30:46.326Z,-0.50
2023-02-08T15:36:07.637Z,-0.60
2023-02-08T15:41:12.325Z,-0.80
2023-02-08T15:46:26.719Z,-0.90
2023-02-08T15:51:29.308Z,-1.00
2023-02-08T15:56:38.384Z,-1.00
2023-02-08T16:01:47.316Z,-0.80
2023-02-08T16:06:55.435Z,-0.80
2023-02-08T16:12:00.574Z,-0.80
2023-02-08T16:17:02.585Z,-0.60
2023-02-08T16:22:25.938Z,-0.50
2023-02-08T16:27:30.690Z,-0.50
2023-02-08T16:32:36.099Z,-0.50
2023-02-08T16:37:38.190Z,-0.60
2023-02-08T16:42:40.403Z,-0.70
2023-02-08T16:47:46.985Z,-0.70
2023-02-08T16:52:53.047Z,-0.70
2023-02-08T16:57:57.367Z,-0.80
2023-02-08T17:02:59.623Z,-0.80
2023-02-08T17:08:03.191Z,-0.80
2023-02-08T17:13:19.249Z,-0.80
2023-02-08T17:18:22.489Z,-0.70
2023-02-08T17:23:24.428Z,-0.70
2023-02-08T17:28:27.371Z,-0.70
2023-02-08T17:33:29.391Z,-0.90
2023-02-08T17:38:31.240Z,-0.90
2023-02-08T17:43:33.352Z,-0.90
2023-02-08T17:48:35.257Z,-1.00
2023-02-08T17:53:40.764Z,-1.00
2023-02-08T17:58:43.081Z,-1.00
2023-02-08T18:03:46.431Z,-1.10
2023-02-08T18:08:48.342Z,-1.20
2023-02-08T18:13:52.829Z,-1.30
2023-02-08T18:18:56.973Z,-1.50
2023-02-08T18:24:05.977Z,-1.80
2023-02-08T18:29:07.860Z,-1.90
2023-02-08T18:34:10.075Z,-1.90
2023-02-08T18:39:15.370Z,-1.90
2023-02-08T18:44:18.197Z,-2.00
2023-02-08T18:49:20.184Z,-2.30
2023-02-08T18:54:22.393Z,-2.50
2023-02-08T18:59:24.208Z,-2.70
2023-02-08T19:04:26.221Z,-2.90
2023-02-08T19:09:28.080Z,-3.00
2023-02-08T19:14:30.416Z,-3.10
2023-02-08T19:19:32.434Z,-3.20
2023-02-08T19:24:34.264Z,-3.30
2023-02-08T19:29:36.654Z,-3.20
2023-02-08T19:34:38.524Z,-3.20
2023-02-08T19:39:40.542Z,-3.20
2023-02-08T19:44:42.449Z,-3.20
2023-02-08T19:49:44.347Z,-3.10
2023-02-08T19:54:49.676Z,-3.10
2023-02-08T19:59:51.535Z,-3.00
2023-02-08T20:04:53.538Z,-2.90
2023-02-08T20:09:55.405Z,-2.80
2023-02-08T20:14:57.392Z,-2.60
2023-02-08T20:19:59.218Z,-2.70
2023-02-08T20:25:01.050Z,-2.70
2023-02-08T20:30:03.228Z,-2.60
2023-02-08T20:35:05.611Z,-2.90
2023-02-08T20:40:08.821Z,-3.30
2023-02-08T20:45:11.362Z,-3.40
2023-02-08T20:50:18.744Z,-3.50
2023-02-08T20:55:21.576Z,-3.70
2023-02-08T21:00:27.947Z,-3.70
2023-02-08T21:05:35.358Z,-3.70
2023-02-08T21:10:38.241Z,-3.70
2023-02-08T21:15:44.318Z,-3.90
2023-02-08T21:20:46.666Z,-4.00
2023-02-08T21:25:48.682Z,-4.20
2023-02-08T21:30:58.457Z,-4.30
2023-02-08T21:36:06.927Z,-4.40
2023-02-08T21:41:10.709Z,-4.40
2023-02-08T21:46:13.200Z,-4.40
2023-02-08T21:51:33.673Z,-4.40
2023-02-08T21:56:36.161Z,-4.40
2023-02-08T22:01:38.200Z,-4.50
2023-02-08T22:06:52.147Z,-4.50
2023-02-08T22:11:54.062Z,-4.60
2023-02-08T22:16:55.976Z,-4.70
2023-02-08T22:21:57.893Z,-4.70
2023-02-08T22:27:00.320Z,-4.70
2023-02-08T22:32:02.300Z,-4.60
2023-02-08T22:37:04.841Z,-4.70
2023-02-08T22:42:08.943Z,-4.80
2023-02-08T22:47:12.149Z,-4.90
2023-02-08T22:52:14.476Z,-5.00
2023-02-08T22:57:16.319Z,-5.00
2023-02-08T23:02:18.226Z,-5.00
2023-02-08T23:07:20.267Z,-5.00
2023-02-08T23:12:22.148Z,-5.00
2023-02-08T23:17:24.104Z,-5.10
2023-02-08T23:22:26.464Z,-5.20
2023-02-08T23:27:28.475Z,-5.50
2023-02-08T23:32:30.455Z,-5.60
2023-02-08T23:37:32.332Z,-5.80
2023-02-08T23:42:34.159Z,-5.70
2023-02-08T23:47:37.860Z,-5.70
2023-02-08T23:52:39.839Z,-5.60
2023-02-08T23:57:41.719Z,-5.70
